Time;durP1;ratioP1;P1;durP2;ratioP2;P2;SDS_P1;SDS_P2;PMS_P1;PMS_P2;Temp;Humidity;BMP_temperature;BMP_pressure;BME280_temperature;BME280_humidity;BME280_pressure;Samples;Min_cycle;Max_cycle;Signal;HPM_P1;HPM_P2
2023/07/09 00:02:25;;;;;;;6.32;3.88;;;19.70;76.10;;;;;;5065397;28;20028;-49
2023/07/09 00:04:52;;;;;;;7.72;3.40;;;19.70;76.20;;;;;;5067625;28;20036;-47
2023/07/09 00:07:28;;;;;;;8.43;3.90;;;19.60;76.30;;;;;;5073593;28;20017;-47
2023/07/09 00:09:56;;;;;;;7.28;3.95;;;19.60;76.30;;;;;;5074334;28;20028;-47
2023/07/09 00:12:25;;;;;;;5.35;3.70;;;19.60;76.40;;;;;;5067817;28;20085;-50
2023/07/09 00:14:51;;;;;;;6.45;4.43;;;19.60;76.50;;;;;;5065686;28;20044;-48
2023/07/09 00:17:37;;;;;;;6.35;3.95;;;19.60;76.60;;;;;;5066057;28;20056;-47
2023/07/09 00:20:11;;;;;;;5.72;3.08;;;19.50;76.90;;;;;;5072405;28;20028;-47
2023/07/09 00:22:51;;;;;;;7.07;3.97;;;19.50;77.20;;;;;;5075346;28;20410;-49
2023/07/09 00:25:20;;;;;;;5.25;3.58;;;19.40;77.60;;;;;;5072685;28;20116;-51
2023/07/09 00:27:51;;;;;;;6.38;3.97;;;19.40;77.90;;;;;;5074915;28;20032;-47
2023/07/09 00:30:21;;;;;;;5.13;3.50;;;19.20;78.00;;;;;;5068582;28;20041;-47
2023/07/09 00:32:52;;;;;;;5.50;3.97;;;19.20;78.10;;;;;;5065320;28;20501;-47
2023/07/09 00:35:23;;;;;;;5.63;4.05;;;19.10;78.10;;;;;;5074608;28;20085;-47
2023/07/09 00:37:50;;;;;;;7.75;4.38;;;19.10;78.20;;;;;;5068307;28;20059;-47
2023/07/09 00:40:37;;;;;;;10.57;4.60;;;19.00;78.40;;;;;;5074248;28;20043;-49
2023/07/09 00:43:17;;;;;;;10.52;3.72;;;19.00;78.50;;;;;;5069686;28;20022;-50
2023/07/09 00:45:44;;;;;;;7.03;4.18;;;18.90;78.30;;;;;;5061888;28;20031;-47
2023/07/09 00:48:15;;;;;;;7.07;4.20;;;18.90;78.50;;;;;;5074353;28;20078;-47
2023/07/09 00:51:02;;;;;;;5.00;3.58;;;18.90;78.40;;;;;;5073892;28;20037;-47
2023/07/09 00:53:31;;;;;;;6.93;3.53;;;18.90;78.20;;;;;;5054145;28;20032;-47
2023/07/09 00:56:27;;;;;;;7.07;4.28;;;18.90;78.50;;;;;;5074023;28;20054;-50
2023/07/09 00:58:57;;;;;;;6.85;4.63;;;18.90;78.10;;;;;;5069893;28;20024;-47
2023/07/09 01:01:27;;;;;;;5.72;4.40;;;18.80;77.90;;;;;;5069359;28;20090;-48
2023/07/09 01:03:59;;;;;;;6.38;3.88;;;18.90;77.40;;;;;;5074293;28;20033;-48
2023/07/09 01:06:45;;;;;;;7.93;4.45;;;18.90;77.40;;;;;;5069314;28;20028;-48
2023/07/09 01:09:13;;;;;;;9.60;4.53;;;18.90;77.60;;;;;;5066411;28;20127;-48
2023/07/09 01:11:40;;;;;;;5.25;3.80;;;18.90;77.70;;;;;;5070213;28;20030;-48
2023/07/09 01:14:10;;;;;;;8.00;4.32;;;18.90;77.80;;;;;;5066288;28;20044;-48
2023/07/09 01:16:46;;;;;;;6.03;4.03;;;18.90;77.50;;;;;;5067880;28;20036;-48
2023/07/09 01:19:16;;;;;;;7.82;4.25;;;18.90;77.60;;;;;;5064403;28;20390;-49
2023/07/09 01:21:45;;;;;;;5.22;3.88;;;18.90;77.60;;;;;;5066908;28;20052;-48
2023/07/09 01:24:14;;;;;;;8.30;4.60;;;18.90;78.30;;;;;;5069482;28;20040;-47
2023/07/09 01:26:40;;;;;;;6.15;3.92;;;18.90;78.20;;;;;;5073958;28;20069;-48
2023/07/09 01:29:07;;;;;;;6.63;4.00;;;18.90;78.40;;;;;;5071524;28;20025;-48
2023/07/09 01:31:35;;;;;;;5.68;3.67;;;18.80;78.60;;;;;;5068931;28;20021;-49
2023/07/09 01:34:01;;;;;;;5.15;4.10;;;18.80;78.50;;;;;;5068758;28;20040;-47
2023/07/09 01:36:28;;;;;;;7.65;4.20;;;18.80;78.20;;;;;;5071310;28;20032;-49
2023/07/09 01:38:58;;;;;;;9.32;5.20;;;18.80;78.30;;;;;;5069422;28;20158;-48
2023/07/09 01:41:25;;;;;;;6.03;4.22;;;18.80;78.70;;;;;;5065740;28;20062;-49
2023/07/09 01:43:50;;;;;;;4.85;3.65;;;18.70;78.90;;;;;;5055213;28;20028;-47
2023/07/09 01:46:17;;;;;;;5.82;4.07;;;18.70;79.20;;;;;;5073752;28;20039;-50
2023/07/09 01:48:44;;;;;;;6.65;4.28;;;18.70;79.40;;;;;;5070519;28;20045;-48
2023/07/09 01:51:14;;;;;;;5.88;4.28;;;18.60;79.40;;;;;;5071439;28;20036;-49
2023/07/09 01:53:40;;;;;;;;;;;18.60;79.70;;;;;;5048743;28;20020;-47
2023/07/09 01:56:08;;;;;;;7.15;4.35;;;18.60;79.70;;;;;;5072515;28;19962;-48
2023/07/09 01:58:34;;;;;;;5.82;3.90;;;18.60;79.40;;;;;;5057725;28;20436;-50
2023/07/09 02:01:03;;;;;;;5.85;4.00;;;18.60;79.30;;;;;;5064361;28;20357;-47
2023/07/09 02:03:30;;;;;;;5.77;4.17;;;18.60;79.50;;;;;;5062677;28;20454;-48
2023/07/09 02:05:57;;;;;;;7.97;5.35;;;18.60;79.50;;;;;;5069260;28;20313;-47
2023/07/09 02:08:25;;;;;;;6.97;4.13;;;18.60;79.40;;;;;;5069311;28;20029;-49
2023/07/09 02:10:52;;;;;;;8.50;5.07;;;18.60;79.40;;;;;;5068750;28;20086;-47
2023/07/09 02:13:19;;;;;;;6.70;4.72;;;18.60;79.10;;;;;;5070099;28;20032;-49
2023/07/09 02:15:50;;;;;;;7.05;4.10;;;18.60;78.70;;;;;;5072004;28;20036;-47
2023/07/09 02:18:17;;;;;;;8.55;4.53;;;18.60;79.00;;;;;;5072432;28;20090;-50
2023/07/09 02:20:46;;;;;;;5.82;4.88;;;18.60;79.40;;;;;;5072749;28;20460;-47
2023/07/09 02:23:12;;;;;;;7.35;4.53;;;18.60;79.40;;;;;;5063891;28;20079;-48
2023/07/09 02:25:39;;;;;;;6.45;5.28;;;18.60;79.60;;;;;;5052695;28;20119;-48
2023/07/09 02:28:07;;;;;;;8.55;5.15;;;18.50;79.70;;;;;;5065601;28;20012;-48
2023/07/09 02:30:34;;;;;;;6.00;4.68;;;18.50;79.70;;;;;;5068926;28;20020;-47
2023/07/09 02:33:01;;;;;;;5.00;4.43;;;18.50;79.80;;;;;;5071584;28;20048;-50
2023/07/09 02:35:26;;;;;;;8.48;4.38;;;18.50;80.00;;;;;;5070986;28;20039;-47
2023/07/09 02:37:54;;;;;;;7.80;4.95;;;18.50;79.90;;;;;;5066265;28;20032;-48
2023/07/09 02:40:21;;;;;;;6.47;5.32;;;18.50;79.90;;;;;;5069137;28;20047;-47
2023/07/09 02:42:48;;;;;;;10.05;5.65;;;18.40;80.00;;;;;;5071859;28;20381;-49
2023/07/09 02:45:15;;;;;;;5.68;4.22;;;18.40;80.10;;;;;;5068159;28;20469;-47
2023/07/09 02:47:42;;;;;;;7.72;4.80;;;18.40;80.40;;;;;;5072796;28;20107;-48
2023/07/09 02:50:08;;;;;;;8.40;5.18;;;18.40;80.30;;;;;;5054048;28;20027;-49
2023/07/09 02:52:38;;;;;;;5.72;5.00;;;18.40;80.60;;;;;;5067738;28;20032;-49
2023/07/09 02:55:05;;;;;;;6.85;5.00;;;18.40;80.60;;;;;;5043735;28;20035;-47
2023/07/09 02:57:34;;;;;;;6.60;5.00;;;18.40;80.40;;;;;;5066121;28;20044;-50
2023/07/09 03:00:02;;;;;;;8.88;4.85;;;18.40;80.50;;;;;;5070688;28;20111;-50
2023/07/09 03:02:32;;;;;;;24.98;6.07;;;18.40;80.70;;;;;;5073112;28;20361;-49
2023/07/09 03:05:00;;;;;;;7.45;5.40;;;18.30;81.00;;;;;;5069448;28;20036;-47
2023/07/09 03:07:27;;;;;;;6.03;5.20;;;18.30;81.20;;;;;;5065522;28;20027;-49
2023/07/09 03:09:54;;;;;;;7.30;5.05;;;18.30;81.40;;;;;;5069466;28;20020;-49
2023/07/09 03:12:21;;;;;;;6.38;5.10;;;18.30;81.70;;;;;;5054313;28;20024;-47
2023/07/09 03:14:53;;;;;;;7.82;5.80;;;18.30;81.90;;;;;;5068334;28;20110;-48
2023/07/09 03:17:20;;;;;;;7.25;5.35;;;18.20;82.20;;;;;;5066903;28;20067;-47
2023/07/09 03:19:47;;;;;;;7.50;5.70;;;18.20;82.10;;;;;;5051442;28;20031;-48
2023/07/09 03:22:13;;;;;;;9.80;5.15;;;18.20;82.20;;;;;;5063049;28;20036;-47
2023/07/09 03:24:39;;;;;;;5.75;5.05;;;18.20;82.30;;;;;;5069401;28;20090;-47
2023/07/09 03:27:06;;;;;;;9.77;5.15;;;18.20;82.30;;;;;;5060798;28;20108;-47
2023/07/09 03:29:33;;;;;;;6.47;5.65;;;18.20;82.50;;;;;;5051856;28;20024;-51
2023/07/09 03:32:00;;;;;;;8.10;5.55;;;18.20;82.60;;;;;;5071442;28;20335;-48
2023/07/09 03:34:29;;;;;;;8.15;5.63;;;18.20;82.60;;;;;;5071620;28;20151;-48
2023/07/09 03:36:56;;;;;;;7.87;6.03;;;18.20;82.50;;;;;;5060575;28;20131;-48
2023/07/09 03:39:25;;;;;;;10.27;5.18;;;18.20;82.50;;;;;;5061899;28;20063;-48
2023/07/09 03:41:52;;;;;;;8.68;6.35;;;18.20;82.40;;;;;;5070470;28;20270;-50
2023/07/09 03:44:20;;;;;;;9.18;5.70;;;18.20;82.40;;;;;;5070636;28;20460;-48
2023/07/09 03:46:46;;;;;;;8.13;5.63;;;18.30;82.10;;;;;;5070808;28;20048;-47
2023/07/09 03:49:12;;;;;;;7.15;5.50;;;18.30;81.70;;;;;;5072393;28;20365;-50
2023/07/09 03:51:39;;;;;;;6.10;5.32;;;18.30;82.00;;;;;;5057028;28;20025;-48
2023/07/09 03:54:05;;;;;;;6.63;5.47;;;18.40;81.80;;;;;;5065497;28;20104;-49
2023/07/09 03:56:32;;;;;;;6.93;5.53;;;18.40;81.50;;;;;;5063124;28;20025;-48
2023/07/09 03:58:59;;;;;;;9.80;5.97;;;18.40;81.90;;;;;;5053872;28;20447;-47
2023/07/09 04:01:24;;;;;;;7.60;5.50;;;18.40;81.50;;;;;;5069914;28;20419;-47
2023/07/09 04:03:51;;;;;;;6.80;5.20;;;18.40;81.80;;;;;;5054368;28;20029;-47
2023/07/09 04:06:18;;;;;;;7.78;5.38;;;18.40;82.00;;;;;;5068224;28;20045;-48
2023/07/09 04:08:45;;;;;;;7.32;5.68;;;18.40;81.90;;;;;;5066767;28;20075;-48
2023/07/09 04:11:12;;;;;;;6.75;6.03;;;18.40;81.50;;;;;;5069349;28;20111;-48
2023/07/09 04:13:38;;;;;;;8.35;5.90;;;18.50;81.50;;;;;;5053023;28;20047;-49
2023/07/09 04:16:05;;;;;;;7.15;6.03;;;18.50;81.00;;;;;;5065079;28;20033;-48
2023/07/09 04:18:32;;;;;;;9.52;5.78;;;18.50;80.20;;;;;;5041804;28;20502;-49
2023/07/09 04:21:01;;;;;;;7.85;6.93;;;18.60;80.00;;;;;;5040327;28;20374;-48
2023/07/09 04:23:29;;;;;;;6.68;5.38;;;18.60;79.70;;;;;;5048062;28;20063;-47
2023/07/09 04:26:02;;;;;;;8.02;5.55;;;18.70;79.70;;;;;;5040771;28;20446;-48
2023/07/09 04:28:31;;;;;;;6.45;5.80;;;18.70;79.30;;;;;;5050218;28;20037;-48
2023/07/09 04:30:56;;;;;;;7.63;5.72;;;18.80;79.30;;;;;;5046070;28;20116;-48
2023/07/09 04:33:23;;;;;;;10.65;5.72;;;18.80;79.40;;;;;;5041386;28;20116;-53
2023/07/09 04:35:50;;;;;;;8.05;5.25;;;18.90;79.20;;;;;;5050741;28;20474;-47
2023/07/09 04:38:17;;;;;;;8.07;6.15;;;18.90;78.90;;;;;;5049177;28;20039;-47
2023/07/09 04:40:48;;;;;;;7.07;5.60;;;18.90;78.80;;;;;;5050978;28;20033;-47
2023/07/09 04:43:15;;;;;;;7.32;6.25;;;19.00;78.80;;;;;;5049802;28;20044;-48
2023/07/09 04:45:42;;;;;;;6.03;5.43;;;19.10;78.40;;;;;;5043907;28;20071;-50
2023/07/09 04:48:08;;;;;;;10.60;6.10;;;19.20;78.10;;;;;;5048465;28;20079;-48
2023/07/09 04:50:37;;;;;;;6.60;5.70;;;19.30;77.60;;;;;;5035420;28;20166;-48
2023/07/09 04:53:04;;;;;;;6.75;6.05;;;19.30;77.00;;;;;;5050516;28;20021;-49
2023/07/09 04:55:31;;;;;;;7.13;5.25;;;19.40;76.70;;;;;;5053622;28;20323;-51
2023/07/09 04:57:58;;;;;;;8.35;4.82;;;19.40;76.70;;;;;;5046470;28;20067;-48
2023/07/09 05:00:27;;;;;;;7.78;6.35;;;19.40;76.50;;;;;;5049708;28;20029;-47
2023/07/09 05:02:54;;;;;;;6.50;5.72;;;19.50;76.50;;;;;;5056434;28;20462;-51
2023/07/09 05:05:21;;;;;;;8.55;5.20;;;19.40;76.30;;;;;;5052477;28;20113;-48
2023/07/09 05:07:48;;;;;;;11.68;7.10;;;19.50;76.40;;;;;;5048774;28;20370;-50
2023/07/09 05:10:19;;;;;;;6.35;5.47;;;19.50;76.60;;;;;;5050272;28;20017;-48
2023/07/09 05:12:57;;;;;;;6.53;5.80;;;19.50;76.50;;;;;;5051415;28;20025;-48
2023/07/09 05:15:24;;;;;;;7.80;6.20;;;19.50;76.40;;;;;;5050428;28;20030;-49
2023/07/09 05:17:52;;;;;;;10.25;5.90;;;19.60;76.40;;;;;;5034176;28;20381;-49
2023/07/09 05:20:18;;;;;;;6.95;5.20;;;19.60;76.10;;;;;;5045347;28;20067;-49
2023/07/09 05:22:46;;;;;;;11.05;5.88;;;19.60;75.80;;;;;;5070086;28;20078;-48
2023/07/09 05:25:13;;;;;;;7.88;5.93;;;19.60;75.80;;;;;;5070345;28;20121;-53
2023/07/09 05:27:42;;;;;;;12.13;5.78;;;19.60;75.30;;;;;;5072993;28;20025;-48
2023/07/09 05:30:12;;;;;;;9.20;6.07;;;19.80;75.50;;;;;;5069769;28;20105;-51
2023/07/09 05:32:38;;;;;;;7.75;5.80;;;19.80;75.60;;;;;;5068839;28;20020;-48
2023/07/09 05:35:06;;;;;;;9.52;5.90;;;19.90;75.60;;;;;;5067433;28;20028;-49
2023/07/09 05:37:35;;;;;;;7.95;5.53;;;19.90;75.30;;;;;;5069805;28;20155;-52
2023/07/09 05:40:07;;;;;;;6.15;5.55;;;20.00;75.40;;;;;;5062237;28;20396;-49
2023/07/09 05:42:33;;;;;;;6.13;5.50;;;20.00;75.40;;;;;;5072381;28;20060;-51
2023/07/09 05:45:00;;;;;;;7.10;5.32;;;20.10;75.50;;;;;;5068530;28;20053;-48
2023/07/09 05:47:27;;;;;;;5.95;5.05;;;20.20;75.50;;;;;;5070589;28;20035;-48
2023/07/09 05:49:53;;;;;;;7.35;5.55;;;20.30;75.00;;;;;;5072735;28;20345;-48
2023/07/09 05:52:22;;;;;;;6.97;5.85;;;20.40;75.10;;;;;;5065919;28;20029;-48
2023/07/09 05:54:52;;;;;;;7.07;5.55;;;20.40;75.20;;;;;;5071163;28;20377;-48
2023/07/09 05:57:19;;;;;;;8.13;5.53;;;20.50;75.10;;;;;;5068943;28;20116;-48
2023/07/09 05:59:46;;;;;;;7.18;5.57;;;20.70;75.20;;;;;;5070278;28;20020;-48
2023/07/09 06:02:15;;;;;;;7.97;5.72;;;20.80;74.10;;;;;;5067540;28;20162;-48
2023/07/09 06:04:42;;;;;;;6.20;5.53;;;20.90;73.80;;;;;;5050892;28;20032;-53
2023/07/09 06:07:09;;;;;;;6.47;5.80;;;21.10;72.90;;;;;;5055018;28;20606;-52
2023/07/09 06:09:36;;;;;;;7.53;6.20;;;21.30;72.50;;;;;;5072362;28;20398;-50
2023/07/09 06:12:05;;;;;;;6.50;5.80;;;21.40;71.80;;;;;;5070879;28;20025;-48
2023/07/09 06:14:32;;;;;;;6.00;5.40;;;21.50;71.30;;;;;;5067010;28;20032;-48
2023/07/09 06:16:59;;;;;;;8.52;5.10;;;21.70;71.20;;;;;;5069769;28;20051;-48
2023/07/09 06:19:26;;;;;;;6.75;5.38;;;21.80;71.40;;;;;;5049943;28;20479;-48
2023/07/09 06:21:53;;;;;;;6.72;5.18;;;22.10;71.10;;;;;;5054412;28;20430;-50
2023/07/09 06:24:20;;;;;;;6.30;4.95;;;22.20;70.60;;;;;;5071129;28;20043;-48
2023/07/09 06:26:45;;;;;;;7.30;5.72;;;22.30;69.70;;;;;;5066360;28;20365;-48
2023/07/09 06:29:12;;;;;;;7.00;5.32;;;22.40;69.80;;;;;;5052445;28;20029;-49
2023/07/09 06:31:40;;;;;;;6.18;5.18;;;22.40;70.30;;;;;;5068621;28;20170;-49
2023/07/09 06:34:09;;;;;;;7.80;6.00;;;22.50;70.20;;;;;;5067645;28;20032;-51
2023/07/09 06:36:36;;;;;;;5.72;5.13;;;22.60;70.40;;;;;;5068110;28;20056;-52
2023/07/09 06:39:03;;;;;;;6.60;5.47;;;22.60;69.70;;;;;;5063649;28;20052;-48
2023/07/09 06:41:38;;;;;;;8.95;6.28;;;22.80;69.90;;;;;;5067107;28;20470;-48
2023/07/09 06:44:09;;;;;;;6.57;5.50;;;22.80;68.60;;;;;;5070197;28;20078;-50
2023/07/09 06:46:36;;;;;;;6.93;5.82;;;22.90;67.90;;;;;;5050353;28;20132;-50
2023/07/09 06:49:05;;;;;;;8.25;5.43;;;22.90;68.30;;;;;;5059134;28;20028;-54
2023/07/09 06:51:31;;;;;;;7.15;5.68;;;22.90;68.00;;;;;;5057753;28;20031;-48
2023/07/09 06:53:57;;;;;;;5.78;5.18;;;23.10;68.40;;;;;;5051328;28;20033;-48
2023/07/09 06:56:24;;;;;;;8.73;6.10;;;23.20;68.80;;;;;;5042818;28;20032;-49
2023/07/09 06:58:51;;;;;;;6.45;5.43;;;23.30;68.30;;;;;;5066638;28;20032;-51
2023/07/09 07:01:20;;;;;;;7.90;5.47;;;23.30;68.30;;;;;;5065560;28;20028;-52
2023/07/09 07:03:46;;;;;;;7.57;5.72;;;23.40;68.30;;;;;;5065469;28;20335;-49
2023/07/09 07:06:13;;;;;;;5.97;5.40;;;23.30;67.80;;;;;;5069993;28;20032;-48
2023/07/09 07:08:40;;;;;;;7.05;5.78;;;23.40;68.00;;;;;;5066950;28;20085;-52
2023/07/09 07:11:06;;;;;;;7.85;6.25;;;23.50;67.00;;;;;;5051596;28;20460;-49
2023/07/09 07:13:36;;;;;;;7.07;5.88;;;23.50;65.60;;;;;;5065905;28;20040;-49
2023/07/09 07:16:09;;;;;;;8.40;5.82;;;23.50;66.70;;;;;;5066310;28;20035;-51
2023/07/09 07:18:39;;;;;;;9.38;5.30;;;23.60;66.50;;;;;;5037968;28;20049;-51
2023/07/09 07:21:10;;;;;;;9.98;6.00;;;23.70;65.00;;;;;;5047998;28;20033;-50
2023/07/09 07:23:37;;;;;;;8.00;6.03;;;23.90;64.50;;;;;;5045429;28;20458;-51
2023/07/09 07:26:05;;;;;;;7.25;5.18;;;24.10;64.50;;;;;;5044572;28;20033;-50
2023/07/09 07:28:35;;;;;;;6.00;4.73;;;24.30;64.70;;;;;;5045965;28;20035;-52
2023/07/09 07:31:05;;;;;;;6.07;5.10;;;24.50;63.50;;;;;;5049700;28;20036;-49
2023/07/09 07:33:31;;;;;;;;;;;24.80;63.20;;;;;;5050626;28;20025;-50
2023/07/09 07:35:58;;;;;;;5.80;4.82;;;25.00;62.00;;;;;;5050043;28;19916;-50
2023/07/09 07:38:26;;;;;;;6.82;5.43;;;25.30;62.30;;;;;;5050641;28;20112;-51
2023/07/09 07:40:53;;;;;;;7.70;5.82;;;25.70;62.00;;;;;;5035289;28;20043;-52
2023/07/09 07:43:20;;;;;;;8.23;5.13;;;25.90;59.80;;;;;;5049498;28;20044;-55
2023/07/09 07:45:48;;;;;;;7.05;5.32;;;26.10;59.80;;;;;;5039367;28;20029;-51
2023/07/09 07:48:15;;;;;;;7.35;5.53;;;26.20;58.70;;;;;;5033135;28;20121;-50
2023/07/09 07:50:42;;;;;;;5.63;5.13;;;26.20;58.90;;;;;;5049792;28;20056;-51
2023/07/09 07:53:09;;;;;;;14.15;6.20;;;26.40;58.60;;;;;;5048772;28;20021;-51
2023/07/09 07:55:37;;;;;;;6.93;5.63;;;26.30;58.30;;;;;;5048722;28;20514;-53
2023/07/09 07:58:05;;;;;;;6.72;4.97;;;26.40;58.00;;;;;;5046229;28;20041;-54
2023/07/09 08:00:34;;;;;;;6.38;5.13;;;26.50;56.70;;;;;;5043713;28;20043;-51
2023/07/09 08:03:03;;;;;;;6.05;4.90;;;26.70;57.50;;;;;;5029799;28;20481;-49
2023/07/09 08:05:31;;;;;;;5.60;4.83;;;27.10;57.40;;;;;;5047011;28;21673;-54
2023/07/09 08:07:58;;;;;;;8.80;5.50;;;27.30;57.80;;;;;;5049075;28;20039;-53
2023/07/09 08:10:25;;;;;;;6.25;5.35;;;27.40;56.70;;;;;;5041023;28;20057;-53
2023/07/09 08:12:56;;;;;;;7.90;5.72;;;27.40;56.00;;;;;;5049394;28;20025;-52
2023/07/09 08:15:24;;;;;;;7.00;4.93;;;27.60;56.90;;;;;;5043160;28;20040;-52
2023/07/09 08:17:51;;;;;;;6.70;5.68;;;27.90;56.40;;;;;;5057457;28;20110;-55
2023/07/09 08:20:18;;;;;;;6.72;5.43;;;27.80;54.20;;;;;;5053000;28;20059;-55
2023/07/09 08:22:44;;;;;;;5.38;4.88;;;28.00;54.60;;;;;;5069272;28;20046;-51
2023/07/09 08:25:11;;;;;;;7.05;5.82;;;28.10;54.00;;;;;;5060503;28;20028;-55
2023/07/09 08:27:38;;;;;;;7.15;5.28;;;27.90;54.00;;;;;;5067652;28;20033;-51
2023/07/09 08:30:06;;;;;;;7.40;5.60;;;28.20;55.40;;;;;;5070056;28;20020;-55
2023/07/09 08:32:31;;;;;;;6.18;5.50;;;28.40;55.90;;;;;;5071066;28;20112;-52
2023/07/09 08:34:58;;;;;;;6.20;5.00;;;28.50;54.50;;;;;;5051095;28;20514;-51
2023/07/09 08:37:25;;;;;;;5.80;5.20;;;28.80;53.30;;;;;;5059927;28;20350;-49
2023/07/09 08:39:52;;;;;;;8.05;5.60;;;28.80;52.10;;;;;;5070041;28;20885;-50
2023/07/09 08:42:31;;;;;;;5.95;5.05;;;28.90;53.10;;;;;;5067972;28;20037;-52
2023/07/09 08:45:15;;;;;;;;;;;28.90;52.90;;;;;;5069890;28;20032;-52
2023/07/09 08:47:49;;;;;;;6.43;5.47;;;28.80;53.10;;;;;;5069131;28;20002;-51
2023/07/09 08:50:22;;;;;;;7.07;5.03;;;29.10;53.30;;;;;;5061540;28;20029;-49
2023/07/09 08:52:54;;;;;;;7.63;5.22;;;29.10;53.20;;;;;;5055281;28;20094;-52
2023/07/09 08:55:28;;;;;;;8.65;5.38;;;29.20;53.00;;;;;;5070156;28;20029;-52
2023/07/09 08:58:08;;;;;;;5.50;4.78;;;29.50;52.40;;;;;;5068107;28;20032;-51
2023/07/09 09:00:55;;;;;;;9.52;5.90;;;29.70;53.20;;;;;;5065062;28;20031;-53
2023/07/09 09:04:11;;;;;;;8.05;5.65;;;29.80;52.50;;;;;;5053500;28;20036;-55
2023/07/09 09:06:42;;;;;;;5.85;5.20;;;29.70;51.10;;;;;;5019617;28;20496;-50
2023/07/09 09:09:37;;;;;;;6.40;5.25;;;29.70;51.90;;;;;;5067452;28;20107;-55
2023/07/09 09:12:25;;;;;;;8.25;5.65;;;29.90;51.70;;;;;;5064584;28;20021;-52
2023/07/09 09:15:16;;;;;;;6.57;5.15;;;30.00;51.40;;;;;;5050974;28;20051;-50
2023/07/09 09:17:43;;;;;;;5.97;5.38;;;30.10;51.40;;;;;;5070812;28;20431;-52
2023/07/09 09:20:19;;;;;;;8.55;4.95;;;30.20;50.90;;;;;;5072119;28;20047;-52
2023/07/09 09:22:50;;;;;;;10.50;5.10;;;30.30;51.80;;;;;;5068392;28;20060;-54
2023/07/09 09:25:28;;;;;;;6.95;4.82;;;30.50;51.50;;;;;;5073001;28;20017;-51
2023/07/09 09:27:58;;;;;;;5.82;4.70;;;30.50;50.20;;;;;;5073214;28;20040;-50
2023/07/09 09:30:25;;;;;;;7.13;5.45;;;30.70;52.30;;;;;;5071828;28;20107;-51
2023/07/09 09:33:06;;;;;;;7.63;5.22;;;30.90;50.30;;;;;;5052715;28;20090;-51
2023/07/09 09:36:01;;;;;;;5.45;4.80;;;30.90;49.80;;;;;;5071567;28;20121;-55
2023/07/09 09:38:30;;;;;;;5.40;4.90;;;31.30;51.70;;;;;;5055702;28;20051;-54
2023/07/09 09:41:09;;;;;;;6.07;4.85;;;31.30;49.50;;;;;;5070274;28;20056;-55
2023/07/09 09:43:34;;;;;;;6.60;4.90;;;31.60;49.60;;;;;;5065917;28;20032;-52
2023/07/09 09:46:06;;;;;;;5.63;5.05;;;31.40;47.90;;;;;;5070318;28;20091;-51
2023/07/09 09:48:33;;;;;;;6.05;5.03;;;31.50;47.90;;;;;;5072448;28;20025;-51
2023/07/09 09:51:04;;;;;;;7.35;5.45;;;31.40;48.60;;;;;;5072075;28;20107;-52
2023/07/09 09:53:39;;;;;;;6.53;5.55;;;31.10;49.50;;;;;;5054509;28;20028;-50
2023/07/09 09:56:18;;;;;;;8.30;5.03;;;30.90;51.20;;;;;;5072248;28;20703;-53
2023/07/09 09:58:53;;;;;;;6.13;5.45;;;30.60;53.90;;;;;;5067988;28;20081;-53
2023/07/09 10:01:19;;;;;;;6.40;5.60;;;30.70;53.40;;;;;;5062400;28;20075;-52
2023/07/09 10:03:48;;;;;;;5.65;5.05;;;31.00;52.90;;;;;;5069806;28;20052;-54
2023/07/09 10:06:42;;;;;;;7.25;5.22;;;30.90;49.50;;;;;;5072924;28;20024;-52
2023/07/09 10:09:29;;;;;;;5.90;5.40;;;31.20;51.20;;;;;;5052388;28;20032;-52
2023/07/09 10:12:08;;;;;;;5.88;5.05;;;31.50;54.20;;;;;;5063663;28;20120;-52
2023/07/09 10:15:12;;;;;;;7.63;5.32;;;31.50;51.80;;;;;;5055070;28;20821;-50
2023/07/09 10:17:49;;;;;;;8.00;5.15;;;31.70;49.90;;;;;;5065441;28;20101;-50
2023/07/09 10:20:32;;;;;;;9.27;5.07;;;31.70;49.20;;;;;;5071024;28;20024;-58
2023/07/09 10:23:29;;;;;;;6.10;5.28;;;31.80;49.20;;;;;;5068273;28;20362;-50
2023/07/09 10:26:03;;;;;;;6.18;4.95;;;31.80;49.10;;;;;;5000212;28;20046;-54
2023/07/09 10:29:00;;;;;;;6.13;5.50;;;31.80;50.90;;;;;;5007269;28;20034;-53
2023/07/09 10:31:56;;;;;;;7.72;5.00;;;31.50;49.70;;;;;;4994192;28;20057;-53
2023/07/09 10:34:40;;;;;;;5.82;5.30;;;31.30;49.20;;;;;;4995311;28;20129;-52
2023/07/09 10:37:24;;;;;;;6.57;4.38;;;30.90;49.90;;;;;;5011439;28;20348;-54
2023/07/09 10:39:55;;;;;;;6.75;5.28;;;30.80;49.70;;;;;;5006587;28;20468;-51
2023/07/09 10:42:34;;;;;;;7.03;5.53;;;30.70;50.70;;;;;;4996335;28;20126;-52
2023/07/09 10:45:46;;;;;;;8.95;5.03;;;30.80;51.00;;;;;;5010956;28;20033;-52
2023/07/09 10:48:19;;;;;;;5.40;4.90;;;30.90;51.40;;;;;;5011087;28;20603;-51
2023/07/09 10:50:50;;;;;;;7.53;5.60;;;31.10;52.90;;;;;;4991920;28;20695;-51
2023/07/09 10:53:37;;;;;;;6.60;5.70;;;31.00;50.80;;;;;;4991908;28;20416;-53
2023/07/09 10:56:25;;;;;;;7.85;4.60;;;31.00;51.50;;;;;;5009209;28;20026;-54
2023/07/09 10:59:14;;;;;;;6.18;5.47;;;31.00;49.70;;;;;;5007277;28;20679;-54
2023/07/09 11:01:48;;;;;;;5.55;4.60;;;31.10;51.90;;;;;;4993782;28;20125;-54
2023/07/09 11:05:09;;;;;;;6.63;5.07;;;31.20;52.90;;;;;;5063954;28;20495;-54
2023/07/09 11:07:47;;;;;;;6.10;4.65;;;31.00;51.40;;;;;;5002955;28;20279;-54
2023/07/09 11:10:28;;;;;;;5.40;4.88;;;30.90;47.60;;;;;;5012249;28;20034;-53
2023/07/09 11:13:30;;;;;;;5.53;4.90;;;30.90;48.00;;;;;;5010441;28;20089;-50
2023/07/09 11:15:58;;;;;;;6.28;5.40;;;30.50;47.30;;;;;;5007744;28;20048;-54
2023/07/09 11:18:31;;;;;;;6.82;5.30;;;30.40;48.80;;;;;;4995247;28;20137;-54
2023/07/09 11:21:14;;;;;;;6.43;5.28;;;30.50;50.50;;;;;;4984355;28;20040;-51
2023/07/09 11:23:59;;;;;;;5.95;5.10;;;30.70;50.60;;;;;;4984820;28;20038;-53
2023/07/09 11:26:46;;;;;;;9.07;4.85;;;30.80;49.80;;;;;;4989855;28;20451;-52
2023/07/09 11:29:18;;;;;;;7.60;5.50;;;31.00;47.80;;;;;;4984589;28;20042;-53
2023/07/09 11:31:47;;;;;;;5.47;4.85;;;31.20;46.70;;;;;;4990539;28;20030;-54
2023/07/09 11:34:12;;;;;;;;;;;31.30;48.60;;;;;;4993480;28;20548;-50
2023/07/09 11:37:15;;;;;;;7.50;5.55;;;31.10;48.30;;;;;;4994655;28;19924;-51
2023/07/09 11:40:06;;;;;;;7.03;5.15;;;31.10;51.70;;;;;;4964519;28;20049;-52
2023/07/09 11:42:36;;;;;;;6.95;4.90;;;31.10;48.30;;;;;;5018638;28;20033;-55
2023/07/09 11:45:12;;;;;;;6.20;4.95;;;31.20;49.80;;;;;;5048462;28;20036;-51
2023/07/09 11:48:23;;;;;;;5.30;4.80;;;31.30;49.90;;;;;;5049053;28;20040;-52
2023/07/09 11:50:52;;;;;;;5.93;5.32;;;31.40;51.20;;;;;;5038330;28;20107;-51
2023/07/09 11:53:42;;;;;;;7.22;5.30;;;31.40;49.50;;;;;;5051735;28;20029;-51
2023/07/09 11:56:12;;;;;;;5.18;4.68;;;31.40;51.00;;;;;;5049194;28;20538;-51
2023/07/09 11:58:54;;;;;;;6.30;5.18;;;31.40;47.60;;;;;;5049074;28;20029;-53
2023/07/09 12:01:45;;;;;;;5.32;4.82;;;31.30;49.60;;;;;;5043175;28;20033;-55
2023/07/09 12:04:23;;;;;;;6.15;4.43;;;31.40;48.30;;;;;;5038772;28;20061;-51
2023/07/09 12:06:52;;;;;;;4.95;4.45;;;31.20;47.10;;;;;;5051173;28;20083;-50
2023/07/09 12:09:22;;;;;;;;;;;31.30;49.70;;;;;;5050842;28;20040;-55
2023/07/09 12:11:51;;;;;;;5.82;5.25;;;31.40;51.00;;;;;;5033560;28;19909;-53
2023/07/09 12:14:20;;;;;;;6.23;5.53;;;31.40;50.20;;;;;;5045981;28;20036;-57
2023/07/09 12:16:53;;;;;;;6.50;5.05;;;31.50;49.00;;;;;;5047077;28;20024;-53
2023/07/09 12:19:24;;;;;;;8.20;5.80;;;31.40;48.90;;;;;;5059954;28;20060;-55
2023/07/09 12:21:58;;;;;;;5.40;4.90;;;31.50;48.40;;;;;;5059993;28;20039;-55
2023/07/09 12:24:31;;;;;;;6.35;5.30;;;31.40;47.60;;;;;;5064588;28;20040;-55
2023/07/09 12:27:00;;;;;;;6.45;5.70;;;31.40;51.50;;;;;;5069154;28;20024;-57
2023/07/09 12:29:34;;;;;;;6.15;4.88;;;31.50;52.20;;;;;;5068930;28;20087;-51
2023/07/09 12:32:11;;;;;;;6.22;5.32;;;31.40;48.80;;;;;;5064648;28;20066;-51
2023/07/09 12:34:38;;;;;;;6.45;5.63;;;31.40;49.10;;;;;;5066371;28;20078;-54
2023/07/09 12:37:06;;;;;;;5.78;4.93;;;31.40;48.30;;;;;;5061644;28;20040;-55
2023/07/09 12:39:34;;;;;;;7.33;5.70;;;31.30;49.60;;;;;;5063532;28;20115;-56
2023/07/09 12:42:02;;;;;;;5.65;4.80;;;31.30;49.70;;;;;;5066479;28;20286;-56
2023/07/09 12:44:34;;;;;;;6.85;6.10;;;31.30;48.70;;;;;;5066806;28;20032;-52
2023/07/09 12:47:01;;;;;;;6.05;5.40;;;31.30;50.40;;;;;;5063001;28;20033;-52
2023/07/09 12:49:41;;;;;;;6.43;5.82;;;31.40;50.80;;;;;;5059596;28;20458;-55
2023/07/09 12:52:18;;;;;;;6.18;5.57;;;31.60;51.90;;;;;;5053312;28;20120;-53
2023/07/09 12:54:57;;;;;;;6.90;5.35;;;31.60;51.50;;;;;;5068701;28;20033;-51
2023/07/09 12:57:23;;;;;;;;;;;31.60;52.50;;;;;;5069563;28;20501;-51
2023/07/09 12:59:51;;;;;;;6.13;4.78;;;31.60;48.50;;;;;;5062874;28;20006;-57
2023/07/09 13:02:29;;;;;;;6.18;5.57;;;31.60;47.90;;;;;;5045472;28;20059;-54
2023/07/09 13:05:04;;;;;;;5.50;5.00;;;31.60;49.30;;;;;;5068015;28;20089;-51
2023/07/09 13:07:53;;;;;;;5.95;5.25;;;31.60;47.00;;;;;;5050930;28;20031;-51
2023/07/09 13:10:30;;;;;;;7.68;5.80;;;31.50;46.20;;;;;;5068743;28;20028;-52
2023/07/09 13:13:01;;;;;;;8.00;5.45;;;31.50;48.20;;;;;;5067427;28;20070;-53